sensor_id;sensor_type;location;lat;lon;timestamp;P1;durP1;ratioP1;P2;durP2;ratioP2
33206;SDS011;19565;46.602;11.534;2024-03-02T00:01:56;0.87;;;0.87;;
33206;SDS011;19565;46.602;11.534;2024-03-02T00:04:27;0.83;;;0.67;;
33206;SDS011;19565;46.602;11.534;2024-03-02T00:06:56;1.80;;;0.60;;
33206;SDS011;19565;46.602;11.534;2024-03-02T00:09:24;2.67;;;1.00;;
33206;SDS011;19565;46.602;11.534;2024-03-02T00:11:53;0.73;;;0.73;;
33206;SDS011;19565;46.602;11.534;2024-03-02T00:14:23;3.47;;;1.23;;
33206;SDS011;19565;46.602;11.534;2024-03-02T00:16:51;0.80;;;0.77;;
33206;SDS011;19565;46.602;11.534;2024-03-02T00:19:22;0.23;;;0.23;;
33206;SDS011;19565;46.602;11.534;2024-03-02T00:21:51;1.23;;;0.83;;
33206;SDS011;19565;46.602;11.534;2024-03-02T00:24:20;0.87;;;0.87;;
33206;SDS011;19565;46.602;11.534;2024-03-02T00:26:55;0.70;;;0.70;;
33206;SDS011;19565;46.602;11.534;2024-03-02T00:29:25;0.87;;;0.87;;
33206;SDS011;19565;46.602;11.534;2024-03-02T00:31:54;0.40;;;0.40;;
33206;SDS011;19565;46.602;11.534;2024-03-02T00:34:23;2.57;;;2.47;;
33206;SDS011;19565;46.602;11.534;2024-03-02T00:36:51;0.67;;;0.67;;
33206;SDS011;19565;46.602;11.534;2024-03-02T00:39:20;1.43;;;1.23;;
33206;SDS011;19565;46.602;11.534;2024-03-02T00:41:48;0.50;;;0.50;;
33206;SDS011;19565;46.602;11.534;2024-03-02T00:44:16;0.43;;;0.43;;
33206;SDS011;19565;46.602;11.534;2024-03-02T00:46:50;0.90;;;0.90;;
33206;SDS011;19565;46.602;11.534;2024-03-02T00:49:18;1.10;;;1.10;;
33206;SDS011;19565;46.602;11.534;2024-03-02T00:51:50;3.67;;;1.73;;
33206;SDS011;19565;46.602;11.534;2024-03-02T00:54:19;2.43;;;2.20;;
33206;SDS011;19565;46.602;11.534;2024-03-02T00:56:50;2.53;;;2.33;;
33206;SDS011;19565;46.602;11.534;2024-03-02T00:59:21;1.40;;;1.10;;
33206;SDS011;19565;46.602;11.534;2024-03-02T01:01:51;2.03;;;1.83;;
33206;SDS011;19565;46.602;11.534;2024-03-02T01:04:20;1.90;;;1.60;;
33206;SDS011;19565;46.602;11.534;2024-03-02T01:06:49;1.50;;;1.33;;
33206;SDS011;19565;46.602;11.534;2024-03-02T01:09:17;0.77;;;0.73;;
33206;SDS011;19565;46.602;11.534;2024-03-02T01:11:46;1.00;;;0.90;;
33206;SDS011;19565;46.602;11.534;2024-03-02T01:14:14;1.53;;;1.37;;
33206;SDS011;19565;46.602;11.534;2024-03-02T01:16:42;1.80;;;1.10;;
33206;SDS011;19565;46.602;11.534;2024-03-02T01:19:12;1.13;;;1.00;;
33206;SDS011;19565;46.602;11.534;2024-03-02T01:21:41;0.70;;;0.70;;
33206;SDS011;19565;46.602;11.534;2024-03-02T01:24:09;2.73;;;1.33;;
33206;SDS011;19565;46.602;11.534;2024-03-02T01:26:39;2.20;;;1.30;;
33206;SDS011;19565;46.602;11.534;2024-03-02T01:29:08;0.80;;;0.80;;
33206;SDS011;19565;46.602;11.534;2024-03-02T01:31:36;1.37;;;0.70;;
33206;SDS011;19565;46.602;11.534;2024-03-02T01:34:06;1.03;;;1.03;;
33206;SDS011;19565;46.602;11.534;2024-03-02T01:36:35;0.47;;;0.47;;
33206;SDS011;19565;46.602;11.534;2024-03-02T01:39:04;7.00;;;2.33;;
33206;SDS011;19565;46.602;11.534;2024-03-02T01:41:35;8.07;;;1.33;;
33206;SDS011;19565;46.602;11.534;2024-03-02T01:44:03;1.97;;;1.77;;
33206;SDS011;19565;46.602;11.534;2024-03-02T01:46:32;1.17;;;1.00;;
33206;SDS011;19565;46.602;11.534;2024-03-02T01:49:01;0.80;;;0.80;;
33206;SDS011;19565;46.602;11.534;2024-03-02T01:51:30;2.20;;;0.97;;
33206;SDS011;19565;46.602;11.534;2024-03-02T01:53:59;2.53;;;0.70;;
33206;SDS011;19565;46.602;11.534;2024-03-02T01:56:28;0.20;;;0.20;;
33206;SDS011;19565;46.602;11.534;2024-03-02T01:58:56;8.37;;;0.97;;
33206;SDS011;19565;46.602;11.534;2024-03-02T02:01:27;0.53;;;0.53;;
33206;SDS011;19565;46.602;11.534;2024-03-02T02:03:57;0.50;;;0.50;;
33206;SDS011;19565;46.602;11.534;2024-03-02T02:06:26;1.13;;;1.13;;
33206;SDS011;19565;46.602;11.534;2024-03-02T02:08:54;0.17;;;0.17;;
33206;SDS011;19565;46.602;11.534;2024-03-02T02:11:25;0.60;;;0.60;;
33206;SDS011;19565;46.602;11.534;2024-03-02T02:13:54;0.80;;;0.80;;
33206;SDS011;19565;46.602;11.534;2024-03-02T02:16:22;0.77;;;0.73;;
33206;SDS011;19565;46.602;11.534;2024-03-02T02:18:51;0.60;;;0.60;;
33206;SDS011;19565;46.602;11.534;2024-03-02T02:21:23;1.00;;;0.97;;
33206;SDS011;19565;46.602;11.534;2024-03-02T02:23:52;0.67;;;0.67;;
33206;SDS011;19565;46.602;11.534;2024-03-02T02:26:20;1.93;;;1.17;;
33206;SDS011;19565;46.602;11.534;2024-03-02T02:28:49;0.57;;;0.57;;
33206;SDS011;19565;46.602;11.534;2024-03-02T02:31:17;1.70;;;1.13;;
33206;SDS011;19565;46.602;11.534;2024-03-02T02:33:45;0.60;;;0.60;;
33206;SDS011;19565;46.602;11.534;2024-03-02T02:36:14;0.93;;;0.93;;
33206;SDS011;19565;46.602;11.534;2024-03-02T02:38:44;0.30;;;0.30;;
33206;SDS011;19565;46.602;11.534;2024-03-02T02:41:15;2.00;;;0.90;;
33206;SDS011;19565;46.602;11.534;2024-03-02T02:43:43;2.50;;;1.17;;
33206;SDS011;19565;46.602;11.534;2024-03-02T02:46:12;0.30;;;0.30;;
33206;SDS011;19565;46.602;11.534;2024-03-02T02:48:40;0.60;;;0.60;;
33206;SDS011;19565;46.602;11.534;2024-03-02T02:51:08;0.70;;;0.70;;
33206;SDS011;19565;46.602;11.534;2024-03-02T02:53:37;0.57;;;0.57;;
33206;SDS011;19565;46.602;11.534;2024-03-02T02:56:08;0.93;;;0.93;;
33206;SDS011;19565;46.602;11.534;2024-03-02T02:58:36;0.53;;;0.53;;
33206;SDS011;19565;46.602;11.534;2024-03-02T03:01:05;0.47;;;0.47;;
33206;SDS011;19565;46.602;11.534;2024-03-02T03:03:34;0.67;;;0.67;;
33206;SDS011;19565;46.602;11.534;2024-03-02T03:06:02;0.50;;;0.50;;
33206;SDS011;19565;46.602;11.534;2024-03-02T03:08:31;0.50;;;0.50;;
33206;SDS011;19565;46.602;11.534;2024-03-02T03:10:59;1.40;;;1.07;;
33206;SDS011;19565;46.602;11.534;2024-03-02T03:13:29;0.67;;;0.67;;
33206;SDS011;19565;46.602;11.534;2024-03-02T03:15:57;0.90;;;0.50;;
33206;SDS011;19565;46.602;11.534;2024-03-02T03:18:26;0.43;;;0.43;;
33206;SDS011;19565;46.602;11.534;2024-03-02T03:20:54;0.60;;;0.60;;
33206;SDS011;19565;46.602;11.534;2024-03-02T03:23:22;0.30;;;0.30;;
33206;SDS011;19565;46.602;11.534;2024-03-02T03:25:52;1.27;;;0.80;;
33206;SDS011;19565;46.602;11.534;2024-03-02T03:28:20;0.63;;;0.63;;
33206;SDS011;19565;46.602;11.534;2024-03-02T03:30:50;3.30;;;0.70;;
33206;SDS011;19565;46.602;11.534;2024-03-02T03:33:18;0.47;;;0.47;;
33206;SDS011;19565;46.602;11.534;2024-03-02T03:35:46;0.40;;;0.40;;
33206;SDS011;19565;46.602;11.534;2024-03-02T03:38:14;0.40;;;0.40;;
33206;SDS011;19565;46.602;11.534;2024-03-02T03:40:43;0.30;;;0.30;;
33206;SDS011;19565;46.602;11.534;2024-03-02T03:43:11;0.87;;;0.87;;
33206;SDS011;19565;46.602;11.534;2024-03-02T03:45:39;0.40;;;0.40;;
33206;SDS011;19565;46.602;11.534;2024-03-02T03:48:09;0.20;;;0.20;;
33206;SDS011;19565;46.602;11.534;2024-03-02T03:50:37;0.30;;;0.30;;
33206;SDS011;19565;46.602;11.534;2024-03-02T03:53:06;0.50;;;0.50;;
33206;SDS011;19565;46.602;11.534;2024-03-02T03:55:34;3.33;;;1.03;;
33206;SDS011;19565;46.602;11.534;2024-03-02T03:58:02;5.40;;;1.03;;
33206;SDS011;19565;46.602;11.534;2024-03-02T04:00:31;0.53;;;0.53;;
33206;SDS011;19565;46.602;11.534;2024-03-02T04:02:59;0.33;;;0.33;;
33206;SDS011;19565;46.602;11.534;2024-03-02T04:05:29;0.47;;;0.47;;
33206;SDS011;19565;46.602;11.534;2024-03-02T04:07:57;0.73;;;0.73;;
33206;SDS011;19565;46.602;11.534;2024-03-02T04:10:26;0.67;;;0.67;;
33206;SDS011;19565;46.602;11.534;2024-03-02T04:12:54;0.50;;;0.50;;
33206;SDS011;19565;46.602;11.534;2024-03-02T04:15:22;0.77;;;0.77;;
33206;SDS011;19565;46.602;11.534;2024-03-02T04:17:51;0.70;;;0.70;;
33206;SDS011;19565;46.602;11.534;2024-03-02T04:20:19;0.87;;;0.87;;
33206;SDS011;19565;46.602;11.534;2024-03-02T04:22:49;0.60;;;0.60;;
33206;SDS011;19565;46.602;11.534;2024-03-02T04:25:17;0.90;;;0.90;;
33206;SDS011;19565;46.602;11.534;2024-03-02T04:27:46;1.57;;;1.47;;
33206;SDS011;19565;46.602;11.534;2024-03-02T04:30:14;0.70;;;0.70;;
33206;SDS011;19565;46.602;11.534;2024-03-02T04:32:43;0.70;;;0.70;;
33206;SDS011;19565;46.602;11.534;2024-03-02T04:35:13;0.43;;;0.43;;
33206;SDS011;19565;46.602;11.534;2024-03-02T04:37:41;0.50;;;0.50;;
33206;SDS011;19565;46.602;11.534;2024-03-02T04:40:16;0.40;;;0.40;;
33206;SDS011;19565;46.602;11.534;2024-03-02T04:42:44;0.30;;;0.30;;
33206;SDS011;19565;46.602;11.534;2024-03-02T04:45:13;0.50;;;0.50;;
33206;SDS011;19565;46.602;11.534;2024-03-02T04:47:48;0.30;;;0.30;;
33206;SDS011;19565;46.602;11.534;2024-03-02T04:50:17;1.67;;;1.60;;
33206;SDS011;19565;46.602;11.534;2024-03-02T04:52:45;0.40;;;0.40;;
33206;SDS011;19565;46.602;11.534;2024-03-02T04:55:13;0.20;;;0.20;;
33206;SDS011;19565;46.602;11.534;2024-03-02T04:58:11;0.30;;;0.30;;
33206;SDS011;19565;46.602;11.534;2024-03-02T05:00:40;0.30;;;0.30;;
33206;SDS011;19565;46.602;11.534;2024-03-02T05:03:09;0.30;;;0.30;;
33206;SDS011;19565;46.602;11.534;2024-03-02T05:05:37;0.30;;;0.30;;
33206;SDS011;19565;46.602;11.534;2024-03-02T05:08:06;0.27;;;0.27;;
33206;SDS011;19565;46.602;11.534;2024-03-02T05:10:35;0.40;;;0.40;;
33206;SDS011;19565;46.602;11.534;2024-03-02T05:13:04;0.53;;;0.53;;
33206;SDS011;19565;46.602;11.534;2024-03-02T05:15:31;1.17;;;0.63;;
33206;SDS011;19565;46.602;11.534;2024-03-02T05:17:59;1.10;;;0.60;;
33206;SDS011;19565;46.602;11.534;2024-03-02T05:20:29;0.30;;;0.30;;
33206;SDS011;19565;46.602;11.534;2024-03-02T05:22:57;0.80;;;0.80;;
33206;SDS011;19565;46.602;11.534;2024-03-02T05:25:25;0.33;;;0.33;;
33206;SDS011;19565;46.602;11.534;2024-03-02T05:27:55;0.50;;;0.33;;
33206;SDS011;19565;46.602;11.534;2024-03-02T05:30:23;0.20;;;0.20;;
33206;SDS011;19565;46.602;11.534;2024-03-02T05:32:52;0.20;;;0.20;;
33206;SDS011;19565;46.602;11.534;2024-03-02T05:35:21;0.23;;;0.23;;
33206;SDS011;19565;46.602;11.534;2024-03-02T05:37:49;0.30;;;0.30;;
33206;SDS011;19565;46.602;11.534;2024-03-02T05:40:17;0.70;;;0.70;;
33206;SDS011;19565;46.602;11.534;2024-03-02T05:42:49;0.60;;;0.60;;
33206;SDS011;19565;46.602;11.534;2024-03-02T05:45:22;0.80;;;0.80;;
33206;SDS011;19565;46.602;11.534;2024-03-02T05:47:50;1.00;;;0.97;;
33206;SDS011;19565;46.602;11.534;2024-03-02T05:50:18;1.10;;;1.10;;
33206;SDS011;19565;46.602;11.534;2024-03-02T05:52:47;1.53;;;1.43;;
33206;SDS011;19565;46.602;11.534;2024-03-02T05:55:15;1.00;;;1.00;;
33206;SDS011;19565;46.602;11.534;2024-03-02T05:57:43;0.90;;;0.90;;
33206;SDS011;19565;46.602;11.534;2024-03-02T06:00:27;1.10;;;1.07;;
33206;SDS011;19565;46.602;11.534;2024-03-02T06:02:57;0.23;;;0.23;;
33206;SDS011;19565;46.602;11.534;2024-03-02T06:05:25;0.30;;;0.30;;
33206;SDS011;19565;46.602;11.534;2024-03-02T06:07:55;0.50;;;0.50;;
33206;SDS011;19565;46.602;11.534;2024-03-02T06:10:24;0.30;;;0.30;;
33206;SDS011;19565;46.602;11.534;2024-03-02T06:12:52;1.47;;;1.37;;
33206;SDS011;19565;46.602;11.534;2024-03-02T06:15:21;0.33;;;0.33;;
33206;SDS011;19565;46.602;11.534;2024-03-02T06:17:50;0.40;;;0.40;;
33206;SDS011;19565;46.602;11.534;2024-03-02T06:20:19;0.20;;;0.20;;
33206;SDS011;19565;46.602;11.534;2024-03-02T06:22:47;0.30;;;0.30;;
33206;SDS011;19565;46.602;11.534;2024-03-02T06:25:16;0.80;;;0.80;;
33206;SDS011;19565;46.602;11.534;2024-03-02T06:27:44;0.40;;;0.40;;
33206;SDS011;19565;46.602;11.534;2024-03-02T06:30:12;0.70;;;0.70;;
33206;SDS011;19565;46.602;11.534;2024-03-02T06:32:41;0.30;;;0.30;;
33206;SDS011;19565;46.602;11.534;2024-03-02T06:35:14;0.20;;;0.20;;
33206;SDS011;19565;46.602;11.534;2024-03-02T06:37:43;12.47;;;1.53;;
33206;SDS011;19565;46.602;11.534;2024-03-02T06:40:11;0.30;;;0.30;;
33206;SDS011;19565;46.602;11.534;2024-03-02T06:42:39;0.40;;;0.40;;
33206;SDS011;19565;46.602;11.534;2024-03-02T06:45:08;0.67;;;0.50;;
33206;SDS011;19565;46.602;11.534;2024-03-02T06:47:36;0.77;;;0.77;;
33206;SDS011;19565;46.602;11.534;2024-03-02T06:50:05;0.57;;;0.57;;
33206;SDS011;19565;46.602;11.534;2024-03-02T06:52:35;0.60;;;0.60;;
33206;SDS011;19565;46.602;11.534;2024-03-02T06:55:04;0.40;;;0.40;;
33206;SDS011;19565;46.602;11.534;2024-03-02T06:57:33;1.80;;;1.70;;
33206;SDS011;19565;46.602;11.534;2024-03-02T07:00:01;0.37;;;0.37;;
33206;SDS011;19565;46.602;11.534;2024-03-02T07:02:31;0.93;;;0.93;;
33206;SDS011;19565;46.602;11.534;2024-03-02T07:05:00;0.67;;;0.67;;
33206;SDS011;19565;46.602;11.534;2024-03-02T07:07:28;0.60;;;0.60;;
33206;SDS011;19565;46.602;11.534;2024-03-02T07:09:58;1.03;;;1.03;;
33206;SDS011;19565;46.602;11.534;2024-03-02T07:12:27;0.60;;;0.60;;
33206;SDS011;19565;46.602;11.534;2024-03-02T07:14:55;0.40;;;0.40;;
33206;SDS011;19565;46.602;11.534;2024-03-02T07:17:51;0.70;;;0.70;;
33206;SDS011;19565;46.602;11.534;2024-03-02T07:20:19;1.10;;;1.10;;
33206;SDS011;19565;46.602;11.534;2024-03-02T07:22:50;0.50;;;0.50;;
33206;SDS011;19565;46.602;11.534;2024-03-02T07:25:20;1.00;;;1.00;;
33206;SDS011;19565;46.602;11.534;2024-03-02T07:27:51;0.60;;;0.60;;
33206;SDS011;19565;46.602;11.534;2024-03-02T07:30:20;1.10;;;1.03;;
33206;SDS011;19565;46.602;11.534;2024-03-02T07:32:49;0.70;;;0.70;;
33206;SDS011;19565;46.602;11.534;2024-03-02T07:35:18;0.50;;;0.50;;
33206;SDS011;19565;46.602;11.534;2024-03-02T07:37:46;1.07;;;1.03;;
33206;SDS011;19565;46.602;11.534;2024-03-02T07:40:15;1.33;;;1.23;;
33206;SDS011;19565;46.602;11.534;2024-03-02T07:42:45;0.30;;;0.30;;
33206;SDS011;19565;46.602;11.534;2024-03-02T07:45:13;2.93;;;1.40;;
33206;SDS011;19565;46.602;11.534;2024-03-02T07:47:42;1.37;;;1.27;;
33206;SDS011;19565;46.602;11.534;2024-03-02T07:50:11;0.53;;;0.53;;
33206;SDS011;19565;46.602;11.534;2024-03-02T07:52:39;0.57;;;0.57;;
33206;SDS011;19565;46.602;11.534;2024-03-02T07:55:08;0.43;;;0.43;;
33206;SDS011;19565;46.602;11.534;2024-03-02T07:57:36;2.63;;;0.93;;
33206;SDS011;19565;46.602;11.534;2024-03-02T08:00:07;0.30;;;0.30;;
33206;SDS011;19565;46.602;11.534;2024-03-02T08:02:36;0.83;;;0.83;;
33206;SDS011;19565;46.602;11.534;2024-03-02T08:05:05;0.83;;;0.83;;
33206;SDS011;19565;46.602;11.534;2024-03-02T08:07:34;0.70;;;0.70;;
33206;SDS011;19565;46.602;11.534;2024-03-02T08:10:03;1.20;;;1.10;;
33206;SDS011;19565;46.602;11.534;2024-03-02T08:12:32;0.27;;;0.27;;
33206;SDS011;19565;46.602;11.534;2024-03-02T08:15:00;1.30;;;0.67;;
33206;SDS011;19565;46.602;11.534;2024-03-02T08:17:30;3.00;;;1.90;;
33206;SDS011;19565;46.602;11.534;2024-03-02T08:20:03;0.93;;;0.90;;
33206;SDS011;19565;46.602;11.534;2024-03-02T08:22:32;1.03;;;0.70;;
33206;SDS011;19565;46.602;11.534;2024-03-02T08:25:01;2.13;;;0.77;;
33206;SDS011;19565;46.602;11.534;2024-03-02T08:27:30;1.80;;;1.70;;
33206;SDS011;19565;46.602;11.534;2024-03-02T08:29:59;1.20;;;1.10;;
33206;SDS011;19565;46.602;11.534;2024-03-02T08:32:39;0.90;;;0.90;;
33206;SDS011;19565;46.602;11.534;2024-03-02T08:35:07;1.30;;;1.20;;
33206;SDS011;19565;46.602;11.534;2024-03-02T08:37:37;1.40;;;1.37;;
33206;SDS011;19565;46.602;11.534;2024-03-02T08:40:07;1.73;;;1.67;;
33206;SDS011;19565;46.602;11.534;2024-03-02T08:42:42;1.30;;;1.30;;
33206;SDS011;19565;46.602;11.534;2024-03-02T08:45:12;1.40;;;1.40;;
33206;SDS011;19565;46.602;11.534;2024-03-02T08:47:42;1.50;;;1.50;;
33206;SDS011;19565;46.602;11.534;2024-03-02T08:50:10;2.17;;;2.07;;
33206;SDS011;19565;46.602;11.534;2024-03-02T08:52:38;2.37;;;2.27;;
33206;SDS011;19565;46.602;11.534;2024-03-02T08:55:07;2.40;;;2.30;;
33206;SDS011;19565;46.602;11.534;2024-03-02T08:57:37;2.30;;;2.20;;
33206;SDS011;19565;46.602;11.534;2024-03-02T09:00:06;2.57;;;2.47;;
33206;SDS011;19565;46.602;11.534;2024-03-02T09:02:35;3.03;;;2.83;;
33206;SDS011;19565;46.602;11.534;2024-03-02T09:05:06;3.37;;;3.17;;
33206;SDS011;19565;46.602;11.534;2024-03-02T09:07:35;2.80;;;2.70;;
33206;SDS011;19565;46.602;11.534;2024-03-02T09:10:05;2.80;;;2.70;;
33206;SDS011;19565;46.602;11.534;2024-03-02T09:12:34;3.07;;;2.90;;
33206;SDS011;19565;46.602;11.534;2024-03-02T09:15:03;3.73;;;3.53;;
33206;SDS011;19565;46.602;11.534;2024-03-02T09:17:32;4.90;;;4.57;;
33206;SDS011;19565;46.602;11.534;2024-03-02T09:20:00;4.80;;;4.40;;
33206;SDS011;19565;46.602;11.534;2024-03-02T09:22:31;4.10;;;3.90;;
33206;SDS011;19565;46.602;11.534;2024-03-02T09:25:00;5.70;;;5.37;;
33206;SDS011;19565;46.602;11.534;2024-03-02T09:27:28;4.87;;;4.57;;
33206;SDS011;19565;46.602;11.534;2024-03-02T09:29:56;4.70;;;4.40;;
33206;SDS011;19565;46.602;11.534;2024-03-02T09:32:25;4.90;;;4.60;;
33206;SDS011;19565;46.602;11.534;2024-03-02T09:34:53;4.90;;;4.60;;
33206;SDS011;19565;46.602;11.534;2024-03-02T09:37:22;4.93;;;4.63;;
33206;SDS011;19565;46.602;11.534;2024-03-02T09:39:52;5.80;;;5.50;;
33206;SDS011;19565;46.602;11.534;2024-03-02T09:42:20;5.50;;;5.20;;
33206;SDS011;19565;46.602;11.534;2024-03-02T09:44:50;5.63;;;5.33;;
33206;SDS011;19565;46.602;11.534;2024-03-02T09:47:19;6.20;;;5.80;;
33206;SDS011;19565;46.602;11.534;2024-03-02T09:49:47;6.10;;;5.70;;
33206;SDS011;19565;46.602;11.534;2024-03-02T09:52:16;5.97;;;5.60;;
33206;SDS011;19565;46.602;11.534;2024-03-02T09:54:44;6.80;;;6.40;;
33206;SDS011;19565;46.602;11.534;2024-03-02T09:57:16;7.10;;;6.60;;
33206;SDS011;19565;46.602;11.534;2024-03-02T09:59:44;7.67;;;7.17;;
33206;SDS011;19565;46.602;11.534;2024-03-02T10:02:15;6.83;;;6.43;;
33206;SDS011;19565;46.602;11.534;2024-03-02T10:04:43;8.17;;;7.67;;
33206;SDS011;19565;46.602;11.534;2024-03-02T10:07:13;8.57;;;8.00;;
33206;SDS011;19565;46.602;11.534;2024-03-02T10:09:43;8.40;;;7.90;;
33206;SDS011;19565;46.602;11.534;2024-03-02T10:12:12;7.93;;;7.43;;
33206;SDS011;19565;46.602;11.534;2024-03-02T10:14:43;8.20;;;7.70;;
33206;SDS011;19565;46.602;11.534;2024-03-02T10:17:12;9.07;;;8.57;;
33206;SDS011;19565;46.602;11.534;2024-03-02T10:19:42;9.40;;;8.90;;
33206;SDS011;19565;46.602;11.534;2024-03-02T10:22:10;11.80;;;11.20;;
33206;SDS011;19565;46.602;11.534;2024-03-02T10:24:38;11.67;;;11.07;;
33206;SDS011;19565;46.602;11.534;2024-03-02T10:27:08;12.30;;;11.70;;
33206;SDS011;19565;46.602;11.534;2024-03-02T10:29:38;14.50;;;13.70;;
33206;SDS011;19565;46.602;11.534;2024-03-02T10:32:11;16.47;;;15.67;;
33206;SDS011;19565;46.602;11.534;2024-03-02T10:34:40;19.00;;;18.10;;
33206;SDS011;19565;46.602;11.534;2024-03-02T10:37:10;19.23;;;18.33;;
33206;SDS011;19565;46.602;11.534;2024-03-02T10:39:39;20.33;;;19.27;;
33206;SDS011;19565;46.602;11.534;2024-03-02T10:42:09;20.50;;;19.60;;
33206;SDS011;19565;46.602;11.534;2024-03-02T10:44:39;21.83;;;20.83;;
33206;SDS011;19565;46.602;11.534;2024-03-02T10:47:09;21.70;;;20.70;;
33206;SDS011;19565;46.602;11.534;2024-03-02T10:49:41;21.30;;;20.40;;
33206;SDS011;19565;46.602;11.534;2024-03-02T10:52:10;22.97;;;21.97;;
33206;SDS011;19565;46.602;11.534;2024-03-02T10:54:39;23.43;;;22.40;;
33206;SDS011;19565;46.602;11.534;2024-03-02T10:57:07;23.00;;;22.00;;
33206;SDS011;19565;46.602;11.534;2024-03-02T10:59:40;23.07;;;22.07;;
33206;SDS011;19565;46.602;11.534;2024-03-02T11:02:21;23.57;;;22.57;;
33206;SDS011;19565;46.602;11.534;2024-03-02T11:04:50;22.27;;;21.27;;
33206;SDS011;19565;46.602;11.534;2024-03-02T11:07:24;23.07;;;22.07;;
33206;SDS011;19565;46.602;11.534;2024-03-02T11:09:56;22.43;;;21.43;;
33206;SDS011;19565;46.602;11.534;2024-03-02T11:12:28;23.97;;;22.80;;
33206;SDS011;19565;46.602;11.534;2024-03-02T11:14:59;23.30;;;22.30;;
33206;SDS011;19565;46.602;11.534;2024-03-02T11:17:32;13.87;;;13.17;;
33206;SDS011;19565;46.602;11.534;2024-03-02T11:20:00;14.10;;;13.30;;
33206;SDS011;19565;46.602;11.534;2024-03-02T11:22:31;14.40;;;13.70;;
33206;SDS011;19565;46.602;11.534;2024-03-02T11:24:59;16.13;;;15.23;;
33206;SDS011;19565;46.602;11.534;2024-03-02T11:33:24;12.30;;;11.70;;
33206;SDS011;19565;46.602;11.534;2024-03-02T11:35:56;13.90;;;13.20;;
33206;SDS011;19565;46.602;11.534;2024-03-02T11:38:29;13.40;;;12.70;;
33206;SDS011;19565;46.602;11.534;2024-03-02T11:40:59;13.97;;;13.27;;
33206;SDS011;19565;46.602;11.534;2024-03-02T11:43:29;12.43;;;11.83;;
33206;SDS011;19565;46.602;11.534;2024-03-02T11:45:58;11.27;;;10.67;;
33206;SDS011;19565;46.602;11.534;2024-03-02T11:48:32;12.53;;;11.93;;
33206;SDS011;19565;46.602;11.534;2024-03-02T11:51:02;12.87;;;12.17;;
33206;SDS011;19565;46.602;11.534;2024-03-02T11:53:30;13.60;;;12.83;;
33206;SDS011;19565;46.602;11.534;2024-03-02T11:56:01;13.40;;;12.70;;
33206;SDS011;19565;46.602;11.534;2024-03-02T11:58:32;12.87;;;12.17;;
33206;SDS011;19565;46.602;11.534;2024-03-02T12:01:04;12.13;;;11.43;;
33206;SDS011;19565;46.602;11.534;2024-03-02T12:03:36;13.10;;;12.07;;
33206;SDS011;19565;46.602;11.534;2024-03-02T12:06:06;9.83;;;9.23;;
33206;SDS011;19565;46.602;11.534;2024-03-02T12:08:35;12.90;;;12.20;;
33206;SDS011;19565;46.602;11.534;2024-03-02T12:11:04;13.93;;;13.23;;
33206;SDS011;19565;46.602;11.534;2024-03-02T12:13:33;15.30;;;14.50;;
33206;SDS011;19565;46.602;11.534;2024-03-02T12:16:01;15.60;;;14.80;;
33206;SDS011;19565;46.602;11.534;2024-03-02T12:18:30;15.40;;;14.60;;
33206;SDS011;19565;46.602;11.534;2024-03-02T12:21:00;16.67;;;15.77;;
33206;SDS011;19565;46.602;11.534;2024-03-02T12:23:30;14.07;;;13.37;;
33206;SDS011;19565;46.602;11.534;2024-03-02T12:25:58;12.40;;;11.80;;
33206;SDS011;19565;46.602;11.534;2024-03-02T12:28:27;13.07;;;12.17;;
33206;SDS011;19565;46.602;11.534;2024-03-02T12:30:57;20.97;;;20.07;;
33206;SDS011;19565;46.602;11.534;2024-03-02T12:33:26;21.07;;;20.17;;
33206;SDS011;19565;46.602;11.534;2024-03-02T12:35:56;22.50;;;20.93;;
33206;SDS011;19565;46.602;11.534;2024-03-02T12:38:26;22.07;;;21.07;;
33206;SDS011;19565;46.602;11.534;2024-03-02T12:40:57;22.07;;;21.07;;
33206;SDS011;19565;46.602;11.534;2024-03-02T12:43:33;23.63;;;22.53;;
33206;SDS011;19565;46.602;11.534;2024-03-02T12:46:01;22.70;;;21.70;;
33206;SDS011;19565;46.602;11.534;2024-03-02T12:48:30;21.90;;;20.90;;
33206;SDS011;19565;46.602;11.534;2024-03-02T12:51:01;23.67;;;22.63;;
33206;SDS011;19565;46.602;11.534;2024-03-02T12:53:31;23.87;;;22.87;;
33206;SDS011;19565;46.602;11.534;2024-03-02T12:55:59;23.00;;;22.00;;
33206;SDS011;19565;46.602;11.534;2024-03-02T12:58:28;23.57;;;22.57;;
33206;SDS011;19565;46.602;11.534;2024-03-02T13:01:06;23.43;;;22.43;;
33206;SDS011;19565;46.602;11.534;2024-03-02T13:03:36;23.90;;;22.83;;
33206;SDS011;19565;46.602;11.534;2024-03-02T13:06:05;23.10;;;22.10;;
33206;SDS011;19565;46.602;11.534;2024-03-02T13:08:36;23.47;;;22.47;;
33206;SDS011;19565;46.602;11.534;2024-03-02T13:11:04;24.17;;;22.87;;
33206;SDS011;19565;46.602;11.534;2024-03-02T13:13:33;24.27;;;23.17;;
33206;SDS011;19565;46.602;11.534;2024-03-02T13:16:02;23.10;;;22.10;;
33206;SDS011;19565;46.602;11.534;2024-03-02T13:18:35;12.40;;;11.80;;
33206;SDS011;19565;46.602;11.534;2024-03-02T13:21:05;14.53;;;13.83;;
33206;SDS011;19565;46.602;11.534;2024-03-02T13:23:34;12.60;;;12.00;;
33206;SDS011;19565;46.602;11.534;2024-03-02T13:26:03;16.43;;;15.53;;
33206;SDS011;19565;46.602;11.534;2024-03-02T13:28:34;11.53;;;10.93;;
33206;SDS011;19565;46.602;11.534;2024-03-02T13:31:02;12.63;;;12.00;;
33206;SDS011;19565;46.602;11.534;2024-03-02T13:33:31;13.00;;;12.30;;
33206;SDS011;19565;46.602;11.534;2024-03-02T13:36:02;17.00;;;16.20;;
33206;SDS011;19565;46.602;11.534;2024-03-02T13:38:32;13.43;;;12.50;;
33206;SDS011;19565;46.602;11.534;2024-03-02T13:41:02;14.17;;;12.80;;
33206;SDS011;19565;46.602;11.534;2024-03-02T13:43:34;13.37;;;12.67;;
33206;SDS011;19565;46.602;11.534;2024-03-02T13:46:04;13.33;;;12.63;;
33206;SDS011;19565;46.602;11.534;2024-03-02T13:48:33;12.87;;;12.17;;
33206;SDS011;19565;46.602;11.534;2024-03-02T13:51:01;12.90;;;12.20;;
33206;SDS011;19565;46.602;11.534;2024-03-02T13:53:30;16.80;;;16.00;;
33206;SDS011;19565;46.602;11.534;2024-03-02T13:55:58;11.50;;;10.90;;
33206;SDS011;19565;46.602;11.534;2024-03-02T13:58:28;12.10;;;11.40;;
33206;SDS011;19565;46.602;11.534;2024-03-02T14:00:56;12.45;;;11.65;;
33206;SDS011;19565;46.602;11.534;2024-03-02T14:03:25;12.73;;;12.02;;
33206;SDS011;19565;46.602;11.534;2024-03-02T14:05:57;12.80;;;12.00;;
33206;SDS011;19565;46.602;11.534;2024-03-02T14:08:25;12.45;;;11.75;;
33206;SDS011;19565;46.602;11.534;2024-03-02T14:10:54;12.85;;;12.15;;
33206;SDS011;19565;46.602;11.534;2024-03-02T14:13:24;12.80;;;12.10;;
33206;SDS011;19565;46.602;11.534;2024-03-02T14:15:54;11.73;;;11.13;;
33206;SDS011;19565;46.602;11.534;2024-03-02T14:18:22;12.50;;;11.80;;
33206;SDS011;19565;46.602;11.534;2024-03-02T14:20:51;13.00;;;12.30;;
33206;SDS011;19565;46.602;11.534;2024-03-02T14:23:19;13.10;;;12.40;;
33206;SDS011;19565;46.602;11.534;2024-03-02T14:25:47;14.07;;;13.38;;
33206;SDS011;19565;46.602;11.534;2024-03-02T14:28:16;13.50;;;12.80;;
33206;SDS011;19565;46.602;11.534;2024-03-02T14:31:07;12.73;;;11.93;;
33206;SDS011;19565;46.602;11.534;2024-03-02T14:33:35;12.27;;;11.57;;
33206;SDS011;19565;46.602;11.534;2024-03-02T14:36:04;12.48;;;11.88;;
33206;SDS011;19565;46.602;11.534;2024-03-02T14:38:32;12.48;;;11.70;;
33206;SDS011;19565;46.602;11.534;2024-03-02T14:41:01;13.45;;;12.65;;
33206;SDS011;19565;46.602;11.534;2024-03-02T14:43:30;12.73;;;12.05;;
33206;SDS011;19565;46.602;11.534;2024-03-02T14:45:58;13.48;;;12.73;;